Terminal Aerodrome Forecast
Issued by NWS Green Bay, WI

Home | Current Version | Previous Version | Text Only | Print | Product List | Glossary On
Versions: 1 2 3 4 5 6 7 8 9 10 11 12 13 14 15 16 17 18
000
FTUS43 KGRB 300520
TAFGRB
TAF
KGRB 300520Z 3006/3106 25006KT P6SM BKN060
     FM301400 26011G18KT P6SM SCT040
     FM301700 27014G22KT P6SM VCSH BKN050
      TEMPO 3022/3102 -SHRA BKN035
     FM310200 28008KT P6SM SCT035 BKN060=

USA.gov is the U.S. government's official web portal to all federal, state and local government web resources and services.